sensor_id;sensor_type;location;lat;lon;timestamp;P1;durP1;ratioP1;P2;durP2;ratioP2
74100;SDS011;62462;52.530;21.682;2023-03-16T00:01:04;51.50;;;22.13;;
74100;SDS011;62462;52.530;21.682;2023-03-16T00:03:31;53.90;;;22.48;;
74100;SDS011;62462;52.530;21.682;2023-03-16T00:05:57;50.03;;;21.95;;
74100;SDS011;62462;52.530;21.682;2023-03-16T00:08:23;46.28;;;19.40;;
74100;SDS011;62462;52.530;21.682;2023-03-16T00:10:49;51.20;;;20.08;;
74100;SDS011;62462;52.530;21.682;2023-03-16T00:13:19;43.85;;;19.13;;
74100;SDS011;62462;52.530;21.682;2023-03-16T00:15:52;45.78;;;19.88;;
74100;SDS011;62462;52.530;21.682;2023-03-16T00:18:20;46.03;;;19.27;;
74100;SDS011;62462;52.530;21.682;2023-03-16T00:20:50;45.28;;;18.92;;
74100;SDS011;62462;52.530;21.682;2023-03-16T00:23:21;43.20;;;18.58;;
74100;SDS011;62462;52.530;21.682;2023-03-16T00:25:54;47.78;;;19.27;;
74100;SDS011;62462;52.530;21.682;2023-03-16T00:28:22;50.13;;;20.67;;
74100;SDS011;62462;52.530;21.682;2023-03-16T00:30:49;48.72;;;18.80;;
74100;SDS011;62462;52.530;21.682;2023-03-16T00:33:15;49.42;;;20.27;;
74100;SDS011;62462;52.530;21.682;2023-03-16T00:35:44;54.80;;;20.85;;
74100;SDS011;62462;52.530;21.682;2023-03-16T00:38:14;47.28;;;21.20;;
74100;SDS011;62462;52.530;21.682;2023-03-16T00:40:43;48.63;;;18.73;;
74100;SDS011;62462;52.530;21.682;2023-03-16T00:43:10;56.63;;;21.40;;
74100;SDS011;62462;52.530;21.682;2023-03-16T00:45:36;54.75;;;22.08;;
74100;SDS011;62462;52.530;21.682;2023-03-16T00:48:02;43.15;;;18.10;;
74100;SDS011;62462;52.530;21.682;2023-03-16T00:50:28;45.10;;;18.48;;
74100;SDS011;62462;52.530;21.682;2023-03-16T00:52:54;44.25;;;19.52;;
74100;SDS011;62462;52.530;21.682;2023-03-16T00:55:20;40.03;;;17.00;;
74100;SDS011;62462;52.530;21.682;2023-03-16T00:57:45;38.92;;;17.25;;
74100;SDS011;62462;52.530;21.682;2023-03-16T01:00:12;42.67;;;17.15;;
74100;SDS011;62462;52.530;21.682;2023-03-16T01:02:41;40.65;;;18.45;;
74100;SDS011;62462;52.530;21.682;2023-03-16T01:05:10;41.53;;;17.35;;
74100;SDS011;62462;52.530;21.682;2023-03-16T01:07:39;36.80;;;17.75;;
74100;SDS011;62462;52.530;21.682;2023-03-16T01:10:06;36.25;;;16.95;;
74100;SDS011;62462;52.530;21.682;2023-03-16T01:12:33;38.15;;;17.50;;
74100;SDS011;62462;52.530;21.682;2023-03-16T01:14:59;42.35;;;17.92;;
74100;SDS011;62462;52.530;21.682;2023-03-16T01:17:25;40.15;;;17.25;;
74100;SDS011;62462;52.530;21.682;2023-03-16T01:19:52;40.55;;;17.45;;
74100;SDS011;62462;52.530;21.682;2023-03-16T01:22:18;39.13;;;16.98;;
74100;SDS011;62462;52.530;21.682;2023-03-16T01:24:44;39.70;;;17.77;;
74100;SDS011;62462;52.530;21.682;2023-03-16T01:27:11;42.45;;;16.98;;
74100;SDS011;62462;52.530;21.682;2023-03-16T01:29:38;38.88;;;16.02;;
74100;SDS011;62462;52.530;21.682;2023-03-16T01:32:04;40.83;;;16.85;;
74100;SDS011;62462;52.530;21.682;2023-03-16T01:34:31;42.55;;;17.20;;
74100;SDS011;62462;52.530;21.682;2023-03-16T01:36:58;39.58;;;16.45;;
74100;SDS011;62462;52.530;21.682;2023-03-16T01:39:24;41.10;;;17.88;;
74100;SDS011;62462;52.530;21.682;2023-03-16T01:41:51;49.88;;;20.92;;
74100;SDS011;62462;52.530;21.682;2023-03-16T01:44:21;47.60;;;20.60;;
74100;SDS011;62462;52.530;21.682;2023-03-16T01:46:52;43.92;;;19.88;;
74100;SDS011;62462;52.530;21.682;2023-03-16T01:54:49;42.75;;;18.42;;
74100;SDS011;62462;52.530;21.682;2023-03-16T01:57:23;41.15;;;18.58;;
74100;SDS011;62462;52.530;21.682;2023-03-16T02:00:10;39.67;;;17.60;;
74100;SDS011;62462;52.530;21.682;2023-03-16T02:02:54;44.45;;;17.48;;
74100;SDS011;62462;52.530;21.682;2023-03-16T02:05:25;41.97;;;18.30;;
74100;SDS011;62462;52.530;21.682;2023-03-16T02:07:57;42.87;;;17.80;;
74100;SDS011;62462;52.530;21.682;2023-03-16T02:10:25;44.03;;;19.50;;
74100;SDS011;62462;52.530;21.682;2023-03-16T02:12:52;46.00;;;20.43;;
74100;SDS011;62462;52.530;21.682;2023-03-16T02:15:18;43.87;;;19.37;;
74100;SDS011;62462;52.530;21.682;2023-03-16T02:17:45;40.67;;;18.53;;
74100;SDS011;62462;52.530;21.682;2023-03-16T02:22:44;44.17;;;17.93;;
74100;SDS011;62462;52.530;21.682;2023-03-16T02:25:13;45.50;;;19.30;;
74100;SDS011;62462;52.530;21.682;2023-03-16T02:30:21;48.17;;;19.67;;
74100;SDS011;62462;52.530;21.682;2023-03-16T02:32:48;50.13;;;20.63;;
74100;SDS011;62462;52.530;21.682;2023-03-16T02:35:17;41.90;;;18.03;;
74100;SDS011;62462;52.530;21.682;2023-03-16T02:37:43;43.38;;;17.90;;
74100;SDS011;62462;52.530;21.682;2023-03-16T02:43:11;40.47;;;17.47;;
74100;SDS011;62462;52.530;21.682;2023-03-16T02:48:10;38.87;;;16.37;;
74100;SDS011;62462;52.530;21.682;2023-03-16T02:50:46;38.87;;;15.60;;
74100;SDS011;62462;52.530;21.682;2023-03-16T02:53:15;32.93;;;15.30;;
74100;SDS011;62462;52.530;21.682;2023-03-16T02:55:41;38.97;;;15.70;;
74100;SDS011;62462;52.530;21.682;2023-03-16T02:58:07;33.93;;;15.43;;
74100;SDS011;62462;52.530;21.682;2023-03-16T03:00:32;35.93;;;15.73;;
74100;SDS011;62462;52.530;21.682;2023-03-16T03:02:58;39.17;;;16.40;;
74100;SDS011;62462;52.530;21.682;2023-03-16T03:05:25;40.83;;;16.27;;
74100;SDS011;62462;52.530;21.682;2023-03-16T03:07:50;37.73;;;16.00;;
74100;SDS011;62462;52.530;21.682;2023-03-16T03:10:16;32.47;;;14.90;;
74100;SDS011;62462;52.530;21.682;2023-03-16T03:12:43;38.67;;;14.53;;
74100;SDS011;62462;52.530;21.682;2023-03-16T03:15:13;36.47;;;14.47;;
74100;SDS011;62462;52.530;21.682;2023-03-16T03:17:40;36.83;;;14.63;;
74100;SDS011;62462;52.530;21.682;2023-03-16T03:20:07;39.23;;;15.63;;
74100;SDS011;62462;52.530;21.682;2023-03-16T03:22:42;35.73;;;14.13;;
74100;SDS011;62462;52.530;21.682;2023-03-16T03:25:09;29.70;;;14.87;;
74100;SDS011;62462;52.530;21.682;2023-03-16T03:27:38;36.40;;;15.63;;
74100;SDS011;62462;52.530;21.682;2023-03-16T03:30:10;38.23;;;15.20;;
74100;SDS011;62462;52.530;21.682;2023-03-16T03:32:38;35.27;;;14.87;;
74100;SDS011;62462;52.530;21.682;2023-03-16T03:35:05;37.90;;;15.20;;
74100;SDS011;62462;52.530;21.682;2023-03-16T03:37:31;37.03;;;14.80;;
74100;SDS011;62462;52.530;21.682;2023-03-16T03:39:57;37.53;;;17.57;;
74100;SDS011;62462;52.530;21.682;2023-03-16T03:42:23;31.93;;;15.07;;
74100;SDS011;62462;52.530;21.682;2023-03-16T03:44:49;36.70;;;14.07;;
74100;SDS011;62462;52.530;21.682;2023-03-16T03:47:16;39.17;;;16.23;;
74100;SDS011;62462;52.530;21.682;2023-03-16T03:49:42;39.10;;;16.57;;
74100;SDS011;62462;52.530;21.682;2023-03-16T03:52:08;39.57;;;16.57;;
74100;SDS011;62462;52.530;21.682;2023-03-16T03:54:35;38.73;;;17.17;;
74100;SDS011;62462;52.530;21.682;2023-03-16T03:57:01;38.47;;;17.37;;
74100;SDS011;62462;52.530;21.682;2023-03-16T03:59:27;41.10;;;17.37;;
74100;SDS011;62462;52.530;21.682;2023-03-16T04:01:53;38.33;;;17.00;;
74100;SDS011;62462;52.530;21.682;2023-03-16T04:04:19;39.80;;;16.30;;
74100;SDS011;62462;52.530;21.682;2023-03-16T04:06:45;41.47;;;20.00;;
74100;SDS011;62462;52.530;21.682;2023-03-16T04:09:11;46.30;;;21.57;;
74100;SDS011;62462;52.530;21.682;2023-03-16T04:11:38;40.47;;;18.10;;
74100;SDS011;62462;52.530;21.682;2023-03-16T04:14:04;42.63;;;18.50;;
74100;SDS011;62462;52.530;21.682;2023-03-16T04:16:30;45.13;;;21.03;;
74100;SDS011;62462;52.530;21.682;2023-03-16T04:18:56;41.10;;;19.07;;
74100;SDS011;62462;52.530;21.682;2023-03-16T04:21:22;45.33;;;19.60;;
74100;SDS011;62462;52.530;21.682;2023-03-16T04:23:49;41.23;;;20.93;;
74100;SDS011;62462;52.530;21.682;2023-03-16T04:26:18;50.03;;;19.30;;
74100;SDS011;62462;52.530;21.682;2023-03-16T04:28:49;42.70;;;19.00;;
74100;SDS011;62462;52.530;21.682;2023-03-16T04:31:17;40.57;;;17.67;;
74100;SDS011;62462;52.530;21.682;2023-03-16T04:33:42;42.37;;;18.10;;
74100;SDS011;62462;52.530;21.682;2023-03-16T04:36:08;37.87;;;17.80;;
74100;SDS011;62462;52.530;21.682;2023-03-16T04:38:36;38.77;;;17.13;;
74100;SDS011;62462;52.530;21.682;2023-03-16T04:41:02;36.93;;;16.80;;
74100;SDS011;62462;52.530;21.682;2023-03-16T04:43:30;39.40;;;16.43;;
74100;SDS011;62462;52.530;21.682;2023-03-16T04:45:59;40.97;;;18.13;;
74100;SDS011;62462;52.530;21.682;2023-03-16T04:48:26;41.07;;;17.07;;
74100;SDS011;62462;52.530;21.682;2023-03-16T04:50:53;39.20;;;16.73;;
74100;SDS011;62462;52.530;21.682;2023-03-16T04:53:19;34.77;;;15.33;;
74100;SDS011;62462;52.530;21.682;2023-03-16T04:55:45;35.73;;;16.10;;
74100;SDS011;62462;52.530;21.682;2023-03-16T04:58:11;40.17;;;15.87;;
74100;SDS011;62462;52.530;21.682;2023-03-16T05:00:40;43.20;;;17.60;;
74100;SDS011;62462;52.530;21.682;2023-03-16T05:03:06;35.50;;;17.20;;
74100;SDS011;62462;52.530;21.682;2023-03-16T05:05:34;37.17;;;16.43;;
74100;SDS011;62462;52.530;21.682;2023-03-16T05:08:04;35.57;;;15.97;;
74100;SDS011;62462;52.530;21.682;2023-03-16T05:10:30;38.30;;;16.13;;
74100;SDS011;62462;52.530;21.682;2023-03-16T05:12:57;35.73;;;16.73;;
74100;SDS011;62462;52.530;21.682;2023-03-16T05:15:24;38.67;;;16.73;;
74100;SDS011;62462;52.530;21.682;2023-03-16T05:17:50;37.10;;;16.60;;
74100;SDS011;62462;52.530;21.682;2023-03-16T05:20:18;38.53;;;17.03;;
74100;SDS011;62462;52.530;21.682;2023-03-16T05:22:45;40.03;;;17.33;;
74100;SDS011;62462;52.530;21.682;2023-03-16T05:25:12;46.53;;;17.50;;
74100;SDS011;62462;52.530;21.682;2023-03-16T05:27:40;44.00;;;17.73;;
74100;SDS011;62462;52.530;21.682;2023-03-16T05:30:08;41.53;;;17.33;;
74100;SDS011;62462;52.530;21.682;2023-03-16T05:32:35;44.17;;;17.07;;
74100;SDS011;62462;52.530;21.682;2023-03-16T05:35:02;41.77;;;18.23;;
74100;SDS011;62462;52.530;21.682;2023-03-16T05:37:28;44.97;;;18.33;;
74100;SDS011;62462;52.530;21.682;2023-03-16T05:39:55;43.87;;;19.00;;
74100;SDS011;62462;52.530;21.682;2023-03-16T05:42:22;51.37;;;21.50;;
74100;SDS011;62462;52.530;21.682;2023-03-16T05:44:51;62.53;;;21.93;;
74100;SDS011;62462;52.530;21.682;2023-03-16T05:47:17;63.50;;;21.60;;
74100;SDS011;62462;52.530;21.682;2023-03-16T05:49:44;62.97;;;22.87;;
74100;SDS011;62462;52.530;21.682;2023-03-16T05:52:10;63.67;;;23.40;;
74100;SDS011;62462;52.530;21.682;2023-03-16T05:54:36;57.13;;;22.27;;
74100;SDS011;62462;52.530;21.682;2023-03-16T05:57:01;51.33;;;22.33;;
74100;SDS011;62462;52.530;21.682;2023-03-16T05:59:27;52.63;;;21.67;;
74100;SDS011;62462;52.530;21.682;2023-03-16T06:01:53;53.87;;;22.27;;
74100;SDS011;62462;52.530;21.682;2023-03-16T06:04:19;51.33;;;21.57;;
74100;SDS011;62462;52.530;21.682;2023-03-16T06:06:45;53.20;;;23.13;;
74100;SDS011;62462;52.530;21.682;2023-03-16T06:09:11;55.67;;;22.77;;
74100;SDS011;62462;52.530;21.682;2023-03-16T06:11:37;50.13;;;21.07;;
74100;SDS011;62462;52.530;21.682;2023-03-16T06:14:03;45.73;;;20.07;;
74100;SDS011;62462;52.530;21.682;2023-03-16T06:16:29;49.17;;;20.20;;
74100;SDS011;62462;52.530;21.682;2023-03-16T06:18:55;44.63;;;20.13;;
74100;SDS011;62462;52.530;21.682;2023-03-16T06:21:21;47.93;;;19.03;;
74100;SDS011;62462;52.530;21.682;2023-03-16T06:23:47;45.30;;;18.40;;
74100;SDS011;62462;52.530;21.682;2023-03-16T06:26:13;47.53;;;20.10;;
74100;SDS011;62462;52.530;21.682;2023-03-16T06:28:39;52.63;;;19.80;;
74100;SDS011;62462;52.530;21.682;2023-03-16T06:31:05;47.43;;;18.63;;
74100;SDS011;62462;52.530;21.682;2023-03-16T06:33:31;45.23;;;20.20;;
74100;SDS011;62462;52.530;21.682;2023-03-16T06:35:57;41.95;;;18.83;;
74100;SDS011;62462;52.530;21.682;2023-03-16T06:38:23;39.37;;;18.23;;
74100;SDS011;62462;52.530;21.682;2023-03-16T06:40:52;47.97;;;21.00;;
74100;SDS011;62462;52.530;21.682;2023-03-16T06:43:18;48.33;;;18.57;;
74100;SDS011;62462;52.530;21.682;2023-03-16T06:45:44;47.90;;;19.97;;
74100;SDS011;62462;52.530;21.682;2023-03-16T06:48:10;44.38;;;17.73;;
74100;SDS011;62462;52.530;21.682;2023-03-16T06:50:36;39.47;;;17.47;;
74100;SDS011;62462;52.530;21.682;2023-03-16T06:53:02;44.37;;;17.53;;
74100;SDS011;62462;52.530;21.682;2023-03-16T06:55:28;39.57;;;16.90;;
74100;SDS011;62462;52.530;21.682;2023-03-16T06:57:53;32.10;;;14.60;;
74100;SDS011;62462;52.530;21.682;2023-03-16T07:00:20;36.43;;;15.13;;
74100;SDS011;62462;52.530;21.682;2023-03-16T07:02:46;37.23;;;15.43;;
74100;SDS011;62462;52.530;21.682;2023-03-16T07:05:11;44.72;;;15.80;;
74100;SDS011;62462;52.530;21.682;2023-03-16T07:07:41;32.60;;;13.98;;
74100;SDS011;62462;52.530;21.682;2023-03-16T07:10:11;32.43;;;14.97;;
74100;SDS011;62462;52.530;21.682;2023-03-16T07:12:38;34.42;;;14.15;;
74100;SDS011;62462;52.530;21.682;2023-03-16T07:15:04;32.45;;;15.55;;
74100;SDS011;62462;52.530;21.682;2023-03-16T07:17:31;36.28;;;15.02;;
74100;SDS011;62462;52.530;21.682;2023-03-16T07:19:56;32.13;;;14.43;;
74100;SDS011;62462;52.530;21.682;2023-03-16T07:22:22;27.10;;;13.57;;
74100;SDS011;62462;52.530;21.682;2023-03-16T07:24:48;41.10;;;18.65;;
74100;SDS011;62462;52.530;21.682;2023-03-16T07:27:21;39.75;;;16.02;;
74100;SDS011;62462;52.530;21.682;2023-03-16T07:29:48;28.77;;;12.85;;
74100;SDS011;62462;52.530;21.682;2023-03-16T07:32:14;30.85;;;14.00;;
74100;SDS011;62462;52.530;21.682;2023-03-16T07:34:40;25.50;;;12.25;;
74100;SDS011;62462;52.530;21.682;2023-03-16T07:37:06;29.00;;;12.70;;
74100;SDS011;62462;52.530;21.682;2023-03-16T07:39:33;25.63;;;11.32;;
74100;SDS011;62462;52.530;21.682;2023-03-16T07:42:00;31.02;;;12.25;;
74100;SDS011;62462;52.530;21.682;2023-03-16T07:44:26;31.35;;;11.77;;
74100;SDS011;62462;52.530;21.682;2023-03-16T07:46:52;28.10;;;12.00;;
74100;SDS011;62462;52.530;21.682;2023-03-16T07:49:18;30.13;;;11.70;;
74100;SDS011;62462;52.530;21.682;2023-03-16T07:51:44;30.00;;;12.13;;
74100;SDS011;62462;52.530;21.682;2023-03-16T07:54:10;28.60;;;10.98;;
74100;SDS011;62462;52.530;21.682;2023-03-16T07:56:36;27.90;;;12.13;;
74100;SDS011;62462;52.530;21.682;2023-03-16T07:59:02;26.67;;;12.40;;
74100;SDS011;62462;52.530;21.682;2023-03-16T08:01:28;27.95;;;12.13;;
74100;SDS011;62462;52.530;21.682;2023-03-16T08:03:54;24.17;;;11.23;;
74100;SDS011;62462;52.530;21.682;2023-03-16T08:06:20;28.63;;;11.63;;
74100;SDS011;62462;52.530;21.682;2023-03-16T08:08:46;24.65;;;10.07;;
74100;SDS011;62462;52.530;21.682;2023-03-16T08:11:12;25.75;;;9.30;;
74100;SDS011;62462;52.530;21.682;2023-03-16T08:13:38;21.88;;;8.60;;
74100;SDS011;62462;52.530;21.682;2023-03-16T08:16:07;25.38;;;9.60;;
74100;SDS011;62462;52.530;21.682;2023-03-16T08:18:34;19.80;;;9.65;;
74100;SDS011;62462;52.530;21.682;2023-03-16T08:21:01;17.77;;;8.95;;
74100;SDS011;62462;52.530;21.682;2023-03-16T08:23:27;20.98;;;9.10;;
74100;SDS011;62462;52.530;21.682;2023-03-16T08:25:56;15.70;;;6.18;;
74100;SDS011;62462;52.530;21.682;2023-03-16T08:28:22;16.42;;;7.20;;
74100;SDS011;62462;52.530;21.682;2023-03-16T08:30:50;16.98;;;7.05;;
74100;SDS011;62462;52.530;21.682;2023-03-16T08:33:17;20.75;;;8.30;;
74100;SDS011;62462;52.530;21.682;2023-03-16T08:35:45;17.48;;;8.13;;
74100;SDS011;62462;52.530;21.682;2023-03-16T08:38:12;16.42;;;6.25;;
74100;SDS011;62462;52.530;21.682;2023-03-16T08:40:40;16.17;;;6.85;;
74100;SDS011;62462;52.530;21.682;2023-03-16T08:43:10;18.17;;;7.15;;
74100;SDS011;62462;52.530;21.682;2023-03-16T08:45:37;16.98;;;6.72;;
74100;SDS011;62462;52.530;21.682;2023-03-16T08:48:03;16.92;;;6.75;;
74100;SDS011;62462;52.530;21.682;2023-03-16T08:50:29;16.30;;;6.85;;
74100;SDS011;62462;52.530;21.682;2023-03-16T08:52:55;17.90;;;6.70;;
74100;SDS011;62462;52.530;21.682;2023-03-16T08:55:21;15.90;;;6.50;;
74100;SDS011;62462;52.530;21.682;2023-03-16T08:57:47;15.18;;;5.97;;
74100;SDS011;62462;52.530;21.682;2023-03-16T09:00:13;13.00;;;5.10;;
74100;SDS011;62462;52.530;21.682;2023-03-16T09:02:40;9.88;;;4.90;;
74100;SDS011;62462;52.530;21.682;2023-03-16T09:05:10;18.77;;;6.70;;
74100;SDS011;62462;52.530;21.682;2023-03-16T09:07:38;15.52;;;5.07;;
74100;SDS011;62462;52.530;21.682;2023-03-16T09:10:08;10.85;;;4.25;;
74100;SDS011;62462;52.530;21.682;2023-03-16T09:12:40;18.13;;;5.80;;
74100;SDS011;62462;52.530;21.682;2023-03-16T09:15:07;12.10;;;5.82;;
74100;SDS011;62462;52.530;21.682;2023-03-16T09:17:36;11.18;;;3.90;;
74100;SDS011;62462;52.530;21.682;2023-03-16T09:20:03;13.23;;;5.85;;
74100;SDS011;62462;52.530;21.682;2023-03-16T09:22:33;14.48;;;6.35;;
74100;SDS011;62462;52.530;21.682;2023-03-16T09:25:00;15.02;;;6.20;;
74100;SDS011;62462;52.530;21.682;2023-03-16T09:27:26;8.63;;;3.47;;
74100;SDS011;62462;52.530;21.682;2023-03-16T09:29:52;13.20;;;5.22;;
74100;SDS011;62462;52.530;21.682;2023-03-16T09:32:20;8.32;;;3.97;;
74100;SDS011;62462;52.530;21.682;2023-03-16T09:34:46;13.48;;;4.00;;
74100;SDS011;62462;52.530;21.682;2023-03-16T09:37:13;10.38;;;4.15;;
74100;SDS011;62462;52.530;21.682;2023-03-16T09:39:40;11.00;;;3.65;;
74100;SDS011;62462;52.530;21.682;2023-03-16T09:42:41;14.55;;;3.70;;
74100;SDS011;62462;52.530;21.682;2023-03-16T09:47:47;11.50;;;3.47;;
74100;SDS011;62462;52.530;21.682;2023-03-16T09:50:26;8.55;;;3.30;;
74100;SDS011;62462;52.530;21.682;2023-03-16T09:55:41;8.68;;;3.33;;
74100;SDS011;62462;52.530;21.682;2023-03-16T09:58:15;8.40;;;2.80;;
74100;SDS011;62462;52.530;21.682;2023-03-16T10:00:46;8.90;;;3.05;;
74100;SDS011;62462;52.530;21.682;2023-03-16T10:03:29;7.65;;;3.58;;
74100;SDS011;62462;52.530;21.682;2023-03-16T10:06:00;6.03;;;3.03;;
74100;SDS011;62462;52.530;21.682;2023-03-16T10:09:12;9.68;;;3.30;;
74100;SDS011;62462;52.530;21.682;2023-03-16T10:22:17;6.80;;;2.63;;
74100;SDS011;62462;52.530;21.682;2023-03-16T10:27:29;5.43;;;2.25;;
74100;SDS011;62462;52.530;21.682;2023-03-16T10:29:56;7.95;;;2.05;;
74100;SDS011;62462;52.530;21.682;2023-03-16T10:32:29;4.65;;;2.08;;
74100;SDS011;62462;52.530;21.682;2023-03-16T10:38:00;4.43;;;2.10;;
74100;SDS011;62462;52.530;21.682;2023-03-16T10:40:29;4.45;;;1.75;;
74100;SDS011;62462;52.530;21.682;2023-03-16T10:43:03;4.30;;;1.52;;
74100;SDS011;62462;52.530;21.682;2023-03-16T10:45:36;3.15;;;1.60;;
74100;SDS011;62462;52.530;21.682;2023-03-16T10:48:06;5.82;;;2.28;;
74100;SDS011;62462;52.530;21.682;2023-03-16T10:50:33;6.28;;;2.45;;
74100;SDS011;62462;52.530;21.682;2023-03-16T10:52:59;9.27;;;3.78;;
74100;SDS011;62462;52.530;21.682;2023-03-16T10:55:30;2.95;;;1.17;;
74100;SDS011;62462;52.530;21.682;2023-03-16T10:58:07;3.88;;;1.40;;
74100;SDS011;62462;52.530;21.682;2023-03-16T11:00:35;4.35;;;1.80;;
74100;SDS011;62462;52.530;21.682;2023-03-16T11:03:12;3.28;;;1.60;;
74100;SDS011;62462;52.530;21.682;2023-03-16T11:08:34;2.30;;;1.15;;
74100;SDS011;62462;52.530;21.682;2023-03-16T11:11:25;4.90;;;2.00;;
74100;SDS011;62462;52.530;21.682;2023-03-16T11:13:58;3.55;;;2.20;;
74100;SDS011;62462;52.530;21.682;2023-03-16T11:22:14;21.17;;;8.68;;
74100;SDS011;62462;52.530;21.682;2023-03-16T11:24:51;8.88;;;3.88;;
74100;SDS011;62462;52.530;21.682;2023-03-16T11:27:48;10.50;;;5.38;;
74100;SDS011;62462;52.530;21.682;2023-03-16T11:33:28;21.50;;;12.10;;
74100;SDS011;62462;52.530;21.682;2023-03-16T11:38:40;8.38;;;4.13;;
74100;SDS011;62462;52.530;21.682;2023-03-16T11:41:21;6.15;;;3.38;;
74100;SDS011;62462;52.530;21.682;2023-03-16T11:43:56;21.05;;;8.13;;
74100;SDS011;62462;52.530;21.682;2023-03-16T11:46:47;29.05;;;10.43;;
74100;SDS011;62462;52.530;21.682;2023-03-16T11:52:42;89.43;;;30.95;;
74100;SDS011;62462;52.530;21.682;2023-03-16T12:04:04;5.72;;;3.00;;
74100;SDS011;62462;52.530;21.682;2023-03-16T12:17:32;11.57;;;4.70;;
74100;SDS011;62462;52.530;21.682;2023-03-16T12:20:06;13.38;;;6.40;;
74100;SDS011;62462;52.530;21.682;2023-03-16T12:22:46;5.78;;;2.42;;
74100;SDS011;62462;52.530;21.682;2023-03-16T12:25:30;6.60;;;2.38;;
74100;SDS011;62462;52.530;21.682;2023-03-16T12:27:59;7.28;;;2.78;;
74100;SDS011;62462;52.530;21.682;2023-03-16T12:35:51;8.23;;;2.78;;
74100;SDS011;62462;52.530;21.682;2023-03-16T12:41:14;5.05;;;1.98;;
74100;SDS011;62462;52.530;21.682;2023-03-16T12:43:44;6.18;;;2.47;;
74100;SDS011;62462;52.530;21.682;2023-03-16T12:46:14;7.20;;;2.85;;
74100;SDS011;62462;52.530;21.682;2023-03-16T12:48:51;6.78;;;3.13;;
74100;SDS011;62462;52.530;21.682;2023-03-16T12:51:30;8.45;;;4.20;;
74100;SDS011;62462;52.530;21.682;2023-03-16T12:53:58;7.75;;;3.40;;
74100;SDS011;62462;52.530;21.682;2023-03-16T12:56:28;5.30;;;2.42;;
74100;SDS011;62462;52.530;21.682;2023-03-16T12:59:00;5.80;;;2.42;;
74100;SDS011;62462;52.530;21.682;2023-03-16T13:01:35;5.43;;;1.92;;
74100;SDS011;62462;52.530;21.682;2023-03-16T13:06:41;5.85;;;2.75;;
74100;SDS011;62462;52.530;21.682;2023-03-16T13:09:11;7.22;;;2.28;;
74100;SDS011;62462;52.530;21.682;2023-03-16T13:11:44;7.65;;;2.90;;
74100;SDS011;62462;52.530;21.682;2023-03-16T13:14:32;6.18;;;2.83;;
74100;SDS011;62462;52.530;21.682;2023-03-16T13:17:04;8.10;;;2.67;;
74100;SDS011;62462;52.530;21.682;2023-03-16T13:19:58;6.05;;;2.80;;
74100;SDS011;62462;52.530;21.682;2023-03-16T13:22:50;5.72;;;2.40;;
74100;SDS011;62462;52.530;21.682;2023-03-16T13:25:41;7.10;;;3.22;;
74100;SDS011;62462;52.530;21.682;2023-03-16T13:28:11;4.10;;;2.50;;
74100;SDS011;62462;52.530;21.682;2023-03-16T13:30:42;7.22;;;2.97;;
74100;SDS011;62462;52.530;21.682;2023-03-16T13:35:42;14.25;;;6.90;;
74100;SDS011;62462;52.530;21.682;2023-03-16T13:38:13;11.73;;;5.20;;
74100;SDS011;62462;52.530;21.682;2023-03-16T13:40:46;7.50;;;3.20;;
74100;SDS011;62462;52.530;21.682;2023-03-16T13:43:14;6.22;;;2.47;;
74100;SDS011;62462;52.530;21.682;2023-03-16T13:45:41;9.20;;;2.90;;
74100;SDS011;62462;52.530;21.682;2023-03-16T13:48:15;8.32;;;3.58;;
74100;SDS011;62462;52.530;21.682;2023-03-16T13:50:42;6.70;;;2.97;;
74100;SDS011;62462;52.530;21.682;2023-03-16T13:53:14;8.68;;;3.05;;
74100;SDS011;62462;52.530;21.682;2023-03-16T13:55:53;8.02;;;2.90;;
74100;SDS011;62462;52.530;21.682;2023-03-16T13:58:30;10.00;;;3.33;;
74100;SDS011;62462;52.530;21.682;2023-03-16T14:01:01;7.93;;;2.72;;
74100;SDS011;62462;52.530;21.682;2023-03-16T14:03:33;7.50;;;2.83;;
74100;SDS011;62462;52.530;21.682;2023-03-16T14:06:01;5.70;;;2.72;;
74100;SDS011;62462;52.530;21.682;2023-03-16T14:08:28;11.90;;;5.00;;
74100;SDS011;62462;52.530;21.682;2023-03-16T14:10:55;34.17;;;14.43;;
74100;SDS011;62462;52.530;21.682;2023-03-16T14:16:30;9.38;;;3.13;;
74100;SDS011;62462;52.530;21.682;2023-03-16T14:18:51;9.68;;;3.65;;
74100;SDS011;62462;52.530;21.682;2023-03-16T14:21:28;7.55;;;2.65;;
74100;SDS011;62462;52.530;21.682;2023-03-16T14:23:56;7.90;;;2.50;;
74100;SDS011;62462;52.530;21.682;2023-03-16T14:26:24;13.63;;;5.07;;
74100;SDS011;62462;52.530;21.682;2023-03-16T14:29:00;16.27;;;8.25;;
74100;SDS011;62462;52.530;21.682;2023-03-16T14:31:37;9.95;;;4.55;;
74100;SDS011;62462;52.530;21.682;2023-03-16T14:34:17;11.35;;;4.57;;
74100;SDS011;62462;52.530;21.682;2023-03-16T14:37:18;14.80;;;6.20;;
74100;SDS011;62462;52.530;21.682;2023-03-16T14:39:56;19.80;;;5.25;;
74100;SDS011;62462;52.530;21.682;2023-03-16T14:42:26;15.90;;;6.22;;
74100;SDS011;62462;52.530;21.682;2023-03-16T14:44:55;47.67;;;22.08;;
74100;SDS011;62462;52.530;21.682;2023-03-16T14:47:25;191.75;;;55.55;;
74100;SDS011;62462;52.530;21.682;2023-03-16T14:49:55;16.83;;;6.22;;
74100;SDS011;62462;52.530;21.682;2023-03-16T14:52:28;39.28;;;14.38;;
74100;SDS011;62462;52.530;21.682;2023-03-16T14:54:58;49.85;;;18.17;;
74100;SDS011;62462;52.530;21.682;2023-03-16T14:57:26;84.45;;;25.52;;
74100;SDS011;62462;52.530;21.682;2023-03-16T14:59:52;19.25;;;7.60;;
74100;SDS011;62462;52.530;21.682;2023-03-16T15:04:47;11.57;;;5.22;;
74100;SDS011;62462;52.530;21.682;2023-03-16T15:09:42;9.43;;;3.88;;
74100;SDS011;62462;52.530;21.682;2023-03-16T15:12:15;6.68;;;3.53;;
74100;SDS011;62462;52.530;21.682;2023-03-16T15:14:43;8.73;;;3.70;;
74100;SDS011;62462;52.530;21.682;2023-03-16T15:17:29;8.65;;;4.10;;
74100;SDS011;62462;52.530;21.682;2023-03-16T15:19:55;10.38;;;5.78;;
74100;SDS011;62462;52.530;21.682;2023-03-16T15:22:32;15.75;;;8.32;;
74100;SDS011;62462;52.530;21.682;2023-03-16T15:25:17;35.05;;;15.05;;
74100;SDS011;62462;52.530;21.682;2023-03-16T15:27:46;45.30;;;17.27;;
74100;SDS011;62462;52.530;21.682;2023-03-16T15:30:16;47.88;;;19.02;;
74100;SDS011;62462;52.530;21.682;2023-03-16T15:32:44;66.55;;;25.70;;
74100;SDS011;62462;52.530;21.682;2023-03-16T15:35:10;50.38;;;19.48;;
74100;SDS011;62462;52.530;21.682;2023-03-16T15:37:35;36.97;;;13.70;;
74100;SDS011;62462;52.530;21.682;2023-03-16T15:40:09;32.30;;;12.10;;
74100;SDS011;62462;52.530;21.682;2023-03-16T15:42:43;28.23;;;10.98;;
74100;SDS011;62462;52.530;21.682;2023-03-16T15:45:13;27.73;;;10.02;;
74100;SDS011;62462;52.530;21.682;2023-03-16T15:47:42;21.67;;;9.52;;
74100;SDS011;62462;52.530;21.682;2023-03-16T15:50:10;24.25;;;8.60;;
74100;SDS011;62462;52.530;21.682;2023-03-16T15:52:37;15.88;;;6.90;;
74100;SDS011;62462;52.530;21.682;2023-03-16T15:55:08;16.20;;;5.30;;
74100;SDS011;62462;52.530;21.682;2023-03-16T15:57:50;11.45;;;4.90;;
74100;SDS011;62462;52.530;21.682;2023-03-16T16:00:25;10.95;;;4.93;;
74100;SDS011;62462;52.530;21.682;2023-03-16T16:02:59;11.93;;;4.95;;
74100;SDS011;62462;52.530;21.682;2023-03-16T16:05:27;10.77;;;4.20;;